createdAt,value
2023-02-13T00:01:30.968Z,11.47
2023-02-13T00:04:01.836Z,11.93
2023-02-13T00:06:30.182Z,11.53
2023-02-13T00:08:58.593Z,11.13
2023-02-13T00:11:27.497Z,11.70
2023-02-13T00:13:55.811Z,11.53
2023-02-13T00:16:24.088Z,11.67
2023-02-13T00:18:52.758Z,12.10
2023-02-13T00:21:22.428Z,11.80
2023-02-13T00:23:50.742Z,11.60
2023-02-13T00:26:19.359Z,12.13
2023-02-13T00:28:50.046Z,11.70
2023-02-13T00:31:21.676Z,11.50
2023-02-13T00:33:51.054Z,12.30
2023-02-13T00:36:22.924Z,11.40
2023-02-13T00:38:52.812Z,11.60
2023-02-13T00:41:22.498Z,11.73
2023-02-13T00:43:53.401Z,11.73
2023-02-13T00:46:21.756Z,12.00
2023-02-13T00:48:50.563Z,11.97
2023-02-13T00:51:18.954Z,11.47
2023-02-13T00:53:48.692Z,11.30
2023-02-13T00:56:17.348Z,11.50
2023-02-13T00:58:46.442Z,11.97
2023-02-13T01:01:14.895Z,11.93
2023-02-13T01:03:43.396Z,12.10
2023-02-13T01:06:11.907Z,12.03
2023-02-13T01:08:41.726Z,11.60
2023-02-13T01:11:11.762Z,11.57
2023-02-13T01:13:40.290Z,11.77
2023-02-13T01:16:09.147Z,11.73
2023-02-13T01:18:37.712Z,11.60
2023-02-13T01:21:09.105Z,11.53
2023-02-13T01:23:39.724Z,11.80
2023-02-13T01:26:12.469Z,12.10
2023-02-13T01:28:40.838Z,11.40
2023-02-13T01:31:09.360Z,11.60
2023-02-13T01:33:37.707Z,10.80
2023-02-13T01:36:11.771Z,11.50
2023-02-13T01:38:40.300Z,11.40
2023-02-13T01:41:11.239Z,11.80
2023-02-13T01:43:54.592Z,11.70
2023-02-13T01:46:29.172Z,11.60
2023-02-13T01:49:05.151Z,11.17
2023-02-13T01:51:36.570Z,11.10
2023-02-13T01:54:09.248Z,10.87
2023-02-13T01:56:44.071Z,11.10
2023-02-13T01:59:19.535Z,11.80
2023-02-13T02:01:49.226Z,11.83
2023-02-13T02:04:22.574Z,10.80
2023-02-13T02:06:54.840Z,11.50
2023-02-13T02:09:31.703Z,10.97
2023-02-13T02:12:07.265Z,10.67
2023-02-13T02:14:40.575Z,10.60
2023-02-13T02:17:11.200Z,11.27
2023-02-13T02:19:46.222Z,11.60
2023-02-13T02:23:04.818Z,10.93
2023-02-13T02:26:19.715Z,10.80
2023-02-13T02:29:25.112Z,11.17
2023-02-13T02:32:26.019Z,11.30
2023-02-13T02:35:04.060Z,10.50
2023-02-13T02:37:56.450Z,11.20
2023-02-13T02:40:35.976Z,11.20
2023-02-13T02:43:21.742Z,12.03
2023-02-13T02:45:59.232Z,11.10
2023-02-13T02:48:51.740Z,10.57
2023-02-13T02:51:28.431Z,11.10
2023-02-13T02:54:31.420Z,10.73
2023-02-13T02:57:07.345Z,11.00
2023-02-13T02:59:56.500Z,11.40
2023-02-13T03:02:44.843Z,11.33
2023-02-13T03:05:39.923Z,11.13
2023-02-13T03:08:08.571Z,10.90
2023-02-13T03:10:57.248Z,11.50
2023-02-13T03:13:41.552Z,10.50
2023-02-13T03:16:34.429Z,11.20
2023-02-13T03:19:20.203Z,10.80
2023-02-13T03:22:13.785Z,10.83
2023-02-13T03:24:54.652Z,10.90
2023-02-13T03:27:53.462Z,10.90
2023-02-13T03:30:31.668Z,11.03
2023-02-13T03:33:15.971Z,10.93
2023-02-13T03:36:08.767Z,11.00
2023-02-13T03:38:47.458Z,10.20
2023-02-13T03:41:20.984Z,10.40
2023-02-13T03:44:00.396Z,10.63
2023-02-13T03:46:34.571Z,10.70
2023-02-13T03:49:24.704Z,11.20
2023-02-13T03:51:57.893Z,10.50
2023-02-13T03:54:52.070Z,10.40
2023-02-13T03:57:41.112Z,10.87
2023-02-13T04:00:15.919Z,10.90
2023-02-13T04:02:57.994Z,11.53
2023-02-13T04:05:30.497Z,11.00
2023-02-13T04:07:58.956Z,11.13
2023-02-13T04:10:33.727Z,10.93
2023-02-13T04:13:10.050Z,10.63
2023-02-13T04:15:44.622Z,10.60
2023-02-13T04:18:18.085Z,10.73
2023-02-13T04:20:46.657Z,11.23
2023-02-13T04:23:15.218Z,10.77
2023-02-13T04:25:48.724Z,10.40
2023-02-13T04:28:17.231Z,10.90
2023-02-13T04:30:45.732Z,11.30
2023-02-13T04:33:14.119Z,10.90
2023-02-13T04:35:42.547Z,11.00
2023-02-13T04:38:10.919Z,10.33
2023-02-13T04:40:39.264Z,10.60
2023-02-13T04:43:09.035Z,11.43
2023-02-13T04:45:37.432Z,10.77
2023-02-13T04:48:05.903Z,10.57
2023-02-13T04:50:34.382Z,10.73
2023-02-13T04:53:02.755Z,10.90
2023-02-13T04:55:31.098Z,10.60
2023-02-13T04:57:59.571Z,10.33
2023-02-13T05:00:30.399Z,10.60
2023-02-13T05:03:05.922Z,10.63
2023-02-13T05:05:34.315Z,10.77
2023-02-13T05:08:02.825Z,10.73
2023-02-13T05:10:31.210Z,10.70
2023-02-13T05:12:59.718Z,10.10
2023-02-13T05:15:29.651Z,10.80
2023-02-13T05:17:58.009Z,10.93
2023-02-13T05:20:26.700Z,10.53
2023-02-13T05:23:13.772Z,10.00
2023-02-13T05:25:43.636Z,11.50
2023-02-13T05:28:25.942Z,11.03
2023-02-13T05:30:55.907Z,10.30
2023-02-13T05:33:24.288Z,10.60
2023-02-13T05:35:52.688Z,10.60
2023-02-13T05:38:21.074Z,10.90
2023-02-13T05:40:49.373Z,10.10
2023-02-13T05:43:17.712Z,10.70
2023-02-13T05:45:46.137Z,10.47
2023-02-13T05:48:15.900Z,10.27
2023-02-13T05:50:44.253Z,10.30
2023-02-13T05:53:12.627Z,11.40
2023-02-13T05:55:40.931Z,11.00
2023-02-13T05:58:09.627Z,10.80
2023-02-13T06:00:38.104Z,10.60
2023-02-13T06:03:06.393Z,11.07
2023-02-13T06:05:36.063Z,10.50
2023-02-13T06:08:04.845Z,10.73
2023-02-13T06:10:33.217Z,10.60
2023-02-13T06:13:01.597Z,10.30
2023-02-13T06:15:30.078Z,11.30
2023-02-13T06:17:58.386Z,10.30
2023-02-13T06:20:26.839Z,11.30
2023-02-13T06:22:56.692Z,10.67
2023-02-13T06:25:25.364Z,10.60
2023-02-13T06:27:53.648Z,11.20
2023-02-13T06:30:22.484Z,11.00
2023-02-13T06:32:50.935Z,11.20
2023-02-13T06:35:19.704Z,10.90
2023-02-13T06:37:48.741Z,11.50
2023-02-13T06:40:18.698Z,10.50
2023-02-13T06:42:47.688Z,10.63
2023-02-13T06:45:16.425Z,11.17
2023-02-13T06:47:46.394Z,10.90
2023-02-13T06:50:17.031Z,11.20
2023-02-13T06:52:48.844Z,10.30
2023-02-13T06:55:19.215Z,10.53
2023-02-13T06:57:48.517Z,10.97
2023-02-13T07:00:19.562Z,11.00
2023-02-13T07:02:49.064Z,10.47
2023-02-13T07:05:17.772Z,11.30
2023-02-13T07:07:46.080Z,10.00
2023-02-13T07:10:15.485Z,10.63
2023-02-13T07:12:49.165Z,10.20
2023-02-13T07:15:22.263Z,11.30
2023-02-13T07:17:56.780Z,10.07
2023-02-13T07:20:25.496Z,10.70
2023-02-13T07:22:53.997Z,10.57
2023-02-13T07:25:22.298Z,10.87
2023-02-13T07:27:52.005Z,10.10
2023-02-13T07:30:20.623Z,9.90
2023-02-13T07:32:48.929Z,10.80
2023-02-13T07:35:17.588Z,10.30
2023-02-13T07:37:45.864Z,10.27
2023-02-13T07:40:14.505Z,10.80
2023-02-13T07:42:42.882Z,10.27
2023-02-13T07:45:12.855Z,10.20
2023-02-13T07:47:41.128Z,10.30
2023-02-13T07:50:10.606Z,11.13
2023-02-13T07:52:39.273Z,10.40
2023-02-13T07:55:08.940Z,10.77
2023-02-13T07:57:37.283Z,10.67
2023-02-13T08:00:07.222Z,10.53
2023-02-13T08:02:42.289Z,11.00
2023-02-13T08:05:10.883Z,10.60
2023-02-13T08:07:39.567Z,10.40
2023-02-13T08:10:29.901Z,10.30
2023-02-13T08:12:58.398Z,11.63
2023-02-13T08:15:27.434Z,10.90
2023-02-13T08:17:57.130Z,10.40
2023-02-13T08:20:25.431Z,11.37
2023-02-13T08:22:53.911Z,10.33
2023-02-13T08:25:22.309Z,10.70
2023-02-13T08:27:50.581Z,10.40
2023-02-13T08:30:19.062Z,11.00
2023-02-13T08:32:54.355Z,10.97
2023-02-13T08:35:27.114Z,11.13
2023-02-13T08:37:55.434Z,11.47
2023-02-13T08:40:25.509Z,11.70
2023-02-13T08:42:56.394Z,12.17
2023-02-13T08:45:25.885Z,12.07
2023-02-13T08:47:57.712Z,11.60
2023-02-13T08:50:29.043Z,12.07
2023-02-13T08:52:57.332Z,12.23
2023-02-13T08:55:25.754Z,12.50
2023-02-13T08:57:54.031Z,12.33
2023-02-13T09:00:23.048Z,12.70
2023-02-13T09:02:51.460Z,12.33
2023-02-13T09:05:19.792Z,13.00
2023-02-13T09:07:49.512Z,12.83
2023-02-13T09:10:18.456Z,13.17
2023-02-13T09:12:53.429Z,13.40
2023-02-13T09:15:21.913Z,12.23
2023-02-13T09:17:50.540Z,12.70
2023-02-13T09:20:19.058Z,12.37
2023-02-13T09:22:48.807Z,12.73
2023-02-13T09:25:17.343Z,12.87
2023-02-13T09:27:45.623Z,11.77
2023-02-13T09:30:23.115Z,11.30
2023-02-13T09:32:52.083Z,11.47
2023-02-13T09:35:21.300Z,11.47
2023-02-13T09:37:50.976Z,11.33
2023-02-13T09:40:27.010Z,11.40
2023-02-13T09:43:07.360Z,11.57
2023-02-13T09:45:36.605Z,11.43
2023-02-13T09:48:06.245Z,11.07
2023-02-13T09:50:35.962Z,12.13
2023-02-13T09:53:06.120Z,11.20
2023-02-13T09:55:48.185Z,12.10
2023-02-13T09:58:25.644Z,11.40
2023-02-13T10:00:59.363Z,11.30
2023-02-13T10:03:32.788Z,11.73
2023-02-13T10:06:09.119Z,12.13
2023-02-13T10:09:00.158Z,11.90
2023-02-13T10:11:54.544Z,11.20
2023-02-13T10:14:31.724Z,11.20
2023-02-13T10:17:06.648Z,11.53
2023-02-13T10:19:41.571Z,12.17
2023-02-13T10:22:16.334Z,12.30
2023-02-13T10:24:50.953Z,11.07
2023-02-13T10:27:24.167Z,11.87
2023-02-13T10:30:09.408Z,11.43
2023-02-13T10:32:49.301Z,11.60
2023-02-13T10:35:27.624Z,11.53
2023-02-13T10:37:59.870Z,11.00
2023-02-13T10:40:34.389Z,11.13
2023-02-13T10:43:09.609Z,10.80
2023-02-13T10:46:01.341Z,11.20
2023-02-13T10:48:49.982Z,11.10
2023-02-13T10:51:28.902Z,11.47
2023-02-13T10:54:23.640Z,11.20
2023-02-13T10:57:05.951Z,10.97
2023-02-13T11:00:01.689Z,11.10
2023-02-13T11:02:32.754Z,11.13
2023-02-13T11:05:12.302Z,10.80
2023-02-13T11:07:42.427Z,10.60
2023-02-13T11:10:18.144Z,10.40
2023-02-13T11:12:48.864Z,10.70
2023-02-13T11:15:26.801Z,10.90
2023-02-13T11:17:58.685Z,10.63
2023-02-13T11:20:33.940Z,10.43
2023-02-13T11:23:34.719Z,10.63
2023-02-13T11:26:07.708Z,10.33
2023-02-13T11:28:40.076Z,10.80
2023-02-13T11:31:25.848Z,10.50
2023-02-13T11:33:55.367Z,11.50
2023-02-13T11:36:28.825Z,10.50
2023-02-13T11:39:02.887Z,10.90
2023-02-13T11:41:34.289Z,11.37
2023-02-13T11:44:06.114Z,11.20
2023-02-13T11:46:48.303Z,11.17
2023-02-13T11:49:21.831Z,11.50
2023-02-13T11:51:52.929Z,10.80
2023-02-13T11:54:28.961Z,10.97
2023-02-13T11:57:04.371Z,11.00
2023-02-13T11:59:42.198Z,10.77
2023-02-13T12:02:20.346Z,11.30
2023-02-13T12:04:51.164Z,10.80
2023-02-13T12:07:24.462Z,11.50
2023-02-13T12:10:01.982Z,10.87
2023-02-13T12:12:42.116Z,10.93
2023-02-13T12:15:20.851Z,10.80
2023-02-13T12:18:01.406Z,11.10
2023-02-13T12:20:37.403Z,11.17
2023-02-13T12:23:13.697Z,11.40
2023-02-13T12:26:03.021Z,10.53
2023-02-13T12:28:51.559Z,10.47
2023-02-13T12:31:47.219Z,10.57
2023-02-13T12:35:05.697Z,10.77
2023-02-13T12:37:51.801Z,10.70
2023-02-13T12:40:58.332Z,11.37
2023-02-13T12:44:07.452Z,10.90
2023-02-13T12:46:49.620Z,11.03
2023-02-13T12:49:36.598Z,11.03
2023-02-13T12:52:23.479Z,11.40
2023-02-13T12:55:14.554Z,11.23
2023-02-13T12:58:01.287Z,10.60
2023-02-13T13:00:49.531Z,10.77
2023-02-13T13:03:36.455Z,10.60
2023-02-13T13:06:27.149Z,15.10
2023-02-13T13:09:22.489Z,13.33
2023-02-13T13:12:12.094Z,15.57
2023-02-13T13:14:50.503Z,14.50
2023-02-13T13:17:40.846Z,13.13
2023-02-13T13:20:54.076Z,12.97
2023-02-13T13:23:29.953Z,11.80
2023-02-13T13:26:13.026Z,11.13
2023-02-13T13:28:44.275Z,11.13
2023-02-13T13:31:14.583Z,11.73
2023-02-13T13:33:47.362Z,10.83
2023-02-13T13:36:26.984Z,11.03
2023-02-13T13:39:05.299Z,11.13
2023-02-13T13:41:42.109Z,11.97
2023-02-13T13:44:50.447Z,11.57
2023-02-13T13:47:33.789Z,11.20
2023-02-13T13:50:05.802Z,10.93
2023-02-13T13:52:37.489Z,11.17
2023-02-13T13:55:07.675Z,10.87
2023-02-13T13:58:00.673Z,11.03
2023-02-13T14:00:31.545Z,10.63
2023-02-13T14:03:26.320Z,10.87
2023-02-13T14:06:05.930Z,11.47
2023-02-13T14:08:59.826Z,11.50
2023-02-13T14:11:39.038Z,10.60
2023-02-13T14:14:53.111Z,11.33
2023-02-13T14:17:54.551Z,10.60
2023-02-13T14:20:43.048Z,10.83
2023-02-13T14:23:31.482Z,10.63
2023-02-13T14:26:29.839Z,10.87
2023-02-13T14:29:25.389Z,10.43
2023-02-13T14:32:19.772Z,10.37
2023-02-13T14:35:00.323Z,10.33
2023-02-13T14:37:37.041Z,10.73
2023-02-13T14:40:50.691Z,10.87
2023-02-13T14:43:40.111Z,10.43
2023-02-13T14:46:35.684Z,10.13
2023-02-13T14:49:08.920Z,11.50
2023-02-13T14:51:41.779Z,10.47
2023-02-13T14:54:25.936Z,11.23
2023-02-13T14:57:01.989Z,10.50
2023-02-13T14:59:36.753Z,10.73
2023-02-13T15:02:18.508Z,11.00
2023-02-13T15:04:50.238Z,10.90
2023-02-13T15:07:24.110Z,10.60
2023-02-13T15:09:55.236Z,10.10
2023-02-13T15:12:30.245Z,11.00
2023-02-13T15:15:01.395Z,11.00
2023-02-13T15:17:38.221Z,10.70
2023-02-13T15:20:18.399Z,10.80
2023-02-13T15:23:38.043Z,10.50
2023-02-13T15:26:08.339Z,10.60
2023-02-13T15:28:37.805Z,10.27
2023-02-13T15:31:22.844Z,10.87
2023-02-13T15:33:52.894Z,11.03
2023-02-13T15:36:25.433Z,10.50
2023-02-13T15:39:01.007Z,10.87
2023-02-13T15:41:35.384Z,10.87
2023-02-13T15:44:04.070Z,10.73
2023-02-13T15:46:35.808Z,10.60
2023-02-13T15:49:08.862Z,11.20
2023-02-13T15:51:37.214Z,11.37
2023-02-13T15:54:09.011Z,11.53
2023-02-13T15:56:39.034Z,11.43
2023-02-13T15:59:07.474Z,11.73
2023-02-13T16:01:39.477Z,11.90
2023-02-13T16:04:11.351Z,11.33
2023-02-13T16:06:41.574Z,11.40
2023-02-13T16:09:27.263Z,11.10
2023-02-13T16:12:02.150Z,11.20
2023-02-13T16:14:32.061Z,11.30
2023-02-13T16:17:06.274Z,12.60
2023-02-13T16:19:40.387Z,11.47
2023-02-13T16:22:23.237Z,12.10
2023-02-13T16:24:54.399Z,11.87
2023-02-13T16:27:27.975Z,12.13
2023-02-13T16:29:59.729Z,12.20
2023-02-13T16:32:32.884Z,12.10
2023-02-13T16:35:25.246Z,11.50
2023-02-13T16:37:58.831Z,11.90
2023-02-13T16:40:43.606Z,11.30
2023-02-13T16:43:43.482Z,11.33
2023-02-13T16:46:24.816Z,12.33
2023-02-13T16:49:16.797Z,11.80
2023-02-13T16:51:49.798Z,12.27
2023-02-13T16:54:32.037Z,11.50
2023-02-13T16:57:04.717Z,12.40
2023-02-13T16:59:58.003Z,11.90
2023-02-13T17:02:28.072Z,11.87
2023-02-13T17:05:03.225Z,12.07
2023-02-13T17:07:35.439Z,11.93
2023-02-13T17:10:07.962Z,12.33
2023-02-13T17:12:39.623Z,11.80
2023-02-13T17:15:13.338Z,11.70
2023-02-13T17:17:42.063Z,12.40
2023-02-13T17:20:18.987Z,12.03
2023-02-13T17:22:50.313Z,12.47
2023-02-13T17:25:22.619Z,12.30
2023-02-13T17:27:51.840Z,11.83
2023-02-13T17:30:23.526Z,11.47
2023-02-13T17:32:59.882Z,12.47
2023-02-13T17:35:29.926Z,11.77
2023-02-13T17:37:58.857Z,11.90
2023-02-13T17:40:30.181Z,11.77
2023-02-13T17:43:00.113Z,12.27
2023-02-13T17:45:33.036Z,12.23
2023-02-13T17:48:01.479Z,12.17
2023-02-13T17:50:32.960Z,12.50
2023-02-13T17:53:04.638Z,12.50
2023-02-13T17:55:34.840Z,13.40
2023-02-13T17:58:03.834Z,13.20
2023-02-13T18:00:35.453Z,12.27
2023-02-13T18:03:04.645Z,12.80
2023-02-13T18:05:34.611Z,12.00
2023-02-13T18:08:03.192Z,12.63
2023-02-13T18:10:35.175Z,11.47
2023-02-13T18:13:05.122Z,11.90
2023-02-13T18:15:34.430Z,12.00
2023-02-13T18:18:03.098Z,12.17
2023-02-13T18:20:32.823Z,11.73
2023-02-13T18:23:01.324Z,12.60
2023-02-13T18:25:29.682Z,11.73
2023-02-13T18:27:58.019Z,11.80
2023-02-13T18:30:26.576Z,11.80
2023-02-13T18:32:58.986Z,12.10
2023-02-13T18:35:28.091Z,11.50
2023-02-13T18:37:57.779Z,12.00
2023-02-13T18:40:26.095Z,11.77
2023-02-13T18:42:54.480Z,11.83
2023-02-13T18:45:22.765Z,11.67
2023-02-13T18:47:51.136Z,12.20
2023-02-13T18:50:19.664Z,11.97
2023-02-13T18:52:48.093Z,11.60
2023-02-13T18:55:17.960Z,12.33
2023-02-13T18:57:46.683Z,12.17
2023-02-13T19:00:17.338Z,12.23
2023-02-13T19:02:45.735Z,12.40
2023-02-13T19:05:14.210Z,12.13
2023-02-13T19:07:42.547Z,12.50
2023-02-13T19:10:11.652Z,12.60
2023-02-13T19:12:41.862Z,12.13
2023-02-13T19:15:11.129Z,12.03
2023-02-13T19:17:39.661Z,12.40
2023-02-13T19:20:09.838Z,12.10
2023-02-13T19:22:38.143Z,11.87
2023-02-13T19:25:07.206Z,11.80
2023-02-13T19:27:38.843Z,11.87
2023-02-13T19:30:10.867Z,12.00
2023-02-13T19:32:39.340Z,11.40
2023-02-13T19:35:08.534Z,11.23
2023-02-13T19:37:43.942Z,12.07
2023-02-13T19:40:14.081Z,11.33
2023-02-13T19:42:42.397Z,11.07
2023-02-13T19:45:12.583Z,12.30
2023-02-13T19:47:40.979Z,11.50
2023-02-13T19:50:11.228Z,11.17
2023-02-13T19:52:40.058Z,11.30
2023-02-13T19:55:08.895Z,12.30
2023-02-13T19:57:37.376Z,11.33
2023-02-13T20:00:09.540Z,11.43
2023-02-13T20:02:42.378Z,11.77
2023-02-13T20:05:10.943Z,11.83
2023-02-13T20:07:39.309Z,11.27
2023-02-13T20:10:10.765Z,11.13
2023-02-13T20:12:39.585Z,11.03
2023-02-13T20:15:08.908Z,10.90
2023-02-13T20:17:38.776Z,11.83
2023-02-13T20:20:10.295Z,11.17
2023-02-13T20:22:38.655Z,11.17
2023-02-13T20:25:07.635Z,11.53
2023-02-13T20:27:41.982Z,12.27
2023-02-13T20:30:15.777Z,11.50
2023-02-13T20:32:44.289Z,11.40
2023-02-13T20:35:14.120Z,11.47
2023-02-13T20:37:43.104Z,12.07
2023-02-13T20:40:12.632Z,11.73
2023-02-13T20:42:41.004Z,11.60
2023-02-13T20:45:10.445Z,11.70
2023-02-13T20:47:40.390Z,11.87
2023-02-13T20:50:10.343Z,11.67
2023-02-13T20:52:40.428Z,11.57
2023-02-13T20:55:10.028Z,12.00
2023-02-13T20:57:38.762Z,11.60
2023-02-13T21:00:13.560Z,12.43
2023-02-13T21:02:42.020Z,11.60
2023-02-13T21:05:10.718Z,11.30
2023-02-13T21:07:40.642Z,11.57
2023-02-13T21:10:10.371Z,11.30
2023-02-13T21:12:38.612Z,11.73
2023-02-13T21:15:07.493Z,12.00
2023-02-13T21:17:35.848Z,11.83
2023-02-13T21:20:05.629Z,12.90
2023-02-13T21:22:34.030Z,12.30
2023-02-13T21:25:04.301Z,13.00
2023-02-13T21:27:32.581Z,12.70
2023-02-13T21:30:00.936Z,12.10
2023-02-13T21:32:29.462Z,11.37
2023-02-13T21:34:58.443Z,12.30
2023-02-13T21:37:26.747Z,11.70
2023-02-13T21:39:55.314Z,11.77
2023-02-13T21:42:25.508Z,12.43
2023-02-13T21:44:53.852Z,11.80
2023-02-13T21:47:22.273Z,13.23
2023-02-13T21:51:15.468Z,11.43
2023-02-13T21:53:44.665Z,12.30
2023-02-13T21:56:15.691Z,12.13
2023-02-13T21:58:46.622Z,11.40
2023-02-13T22:01:26.098Z,11.83
2023-02-13T22:03:57.837Z,12.20
2023-02-13T22:06:27.664Z,12.03
2023-02-13T22:09:00.956Z,12.47
2023-02-13T22:11:30.005Z,11.63
2023-02-13T22:14:02.722Z,11.77
2023-02-13T22:16:32.465Z,12.13
2023-02-13T22:19:01.884Z,11.90
2023-02-13T22:21:32.993Z,11.67
2023-02-13T22:24:02.010Z,11.80
2023-02-13T22:26:32.577Z,11.90
2023-02-13T22:29:06.859Z,11.53
2023-02-13T22:31:35.855Z,11.13
2023-02-13T22:34:05.926Z,11.80
2023-02-13T22:36:35.350Z,11.30
2023-02-13T22:39:03.818Z,11.20
2023-02-13T22:41:32.278Z,10.70
2023-02-13T22:44:02.057Z,11.53
2023-02-13T22:46:32.265Z,11.63
2023-02-13T22:49:01.614Z,11.73
2023-02-13T22:51:32.450Z,11.87
2023-02-13T22:54:01.744Z,11.57
2023-02-13T22:56:31.983Z,12.30
2023-02-13T22:59:01.751Z,11.47
2023-02-13T23:01:31.040Z,11.97
2023-02-13T23:03:59.631Z,11.40
2023-02-13T23:06:28.578Z,11.33
2023-02-13T23:08:57.928Z,11.60
2023-02-13T23:11:47.049Z,11.87
2023-02-13T23:14:17.211Z,11.13
2023-02-13T23:17:03.731Z,11.50
2023-02-13T23:19:32.762Z,10.97
2023-02-13T23:22:01.346Z,11.27
2023-02-13T23:24:30.780Z,11.67
2023-02-13T23:26:59.528Z,11.47
2023-02-13T23:29:29.217Z,11.40
2023-02-13T23:31:57.796Z,11.70
2023-02-13T23:34:26.540Z,11.43
2023-02-13T23:36:54.880Z,11.33
2023-02-13T23:39:24.505Z,11.13
2023-02-13T23:41:52.968Z,13.73
2023-02-13T23:44:23.611Z,13.30
2023-02-13T23:46:53.465Z,14.13
2023-02-13T23:49:22.235Z,12.20
2023-02-13T23:51:50.704Z,11.77
2023-02-13T23:54:24.084Z,12.03
2023-02-13T23:56:56.330Z,11.30
2023-02-13T23:59:25.623Z,11.87
